sensor_id;sensor_type;location;lat;lon;timestamp;temperature;humidity
21207;DHT22;10761;48.532;8.026;2022-08-19T00:01:40;19.40;99.90
21207;DHT22;10761;48.532;8.026;2022-08-19T00:04:11;19.40;99.90
21207;DHT22;10761;48.532;8.026;2022-08-19T00:06:38;19.40;99.90
21207;DHT22;10761;48.532;8.026;2022-08-19T00:09:07;19.50;99.90
21207;DHT22;10761;48.532;8.026;2022-08-19T00:11:33;19.40;99.90
21207;DHT22;10761;48.532;8.026;2022-08-19T00:14:00;19.40;99.90
21207;DHT22;10761;48.532;8.026;2022-08-19T00:16:25;19.40;99.90
21207;DHT22;10761;48.532;8.026;2022-08-19T00:18:51;19.40;99.90
21207;DHT22;10761;48.532;8.026;2022-08-19T00:21:17;19.40;99.90
21207;DHT22;10761;48.532;8.026;2022-08-19T00:23:43;19.30;99.90
21207;DHT22;10761;48.532;8.026;2022-08-19T00:26:09;19.30;99.90
21207;DHT22;10761;48.532;8.026;2022-08-19T00:28:35;19.20;99.90
21207;DHT22;10761;48.532;8.026;2022-08-19T00:31:02;19.30;99.90
21207;DHT22;10761;48.532;8.026;2022-08-19T00:33:29;19.40;99.90
21207;DHT22;10761;48.532;8.026;2022-08-19T00:35:58;19.40;99.90
21207;DHT22;10761;48.532;8.026;2022-08-19T00:38:24;19.40;99.90
21207;DHT22;10761;48.532;8.026;2022-08-19T00:40:49;19.40;99.90
21207;DHT22;10761;48.532;8.026;2022-08-19T00:43:20;19.40;99.90
21207;DHT22;10761;48.532;8.026;2022-08-19T00:45:46;19.30;99.90
21207;DHT22;10761;48.532;8.026;2022-08-19T00:48:14;19.30;99.90
21207;DHT22;10761;48.532;8.026;2022-08-19T00:50:41;19.20;99.90
21207;DHT22;10761;48.532;8.026;2022-08-19T00:53:10;19.20;99.90
21207;DHT22;10761;48.532;8.026;2022-08-19T00:55:37;19.20;99.90
21207;DHT22;10761;48.532;8.026;2022-08-19T00:58:11;19.20;99.90
21207;DHT22;10761;48.532;8.026;2022-08-19T01:00:38;19.20;99.90
21207;DHT22;10761;48.532;8.026;2022-08-19T01:03:10;19.10;99.90
21207;DHT22;10761;48.532;8.026;2022-08-19T01:05:36;19.20;99.90
21207;DHT22;10761;48.532;8.026;2022-08-19T01:08:04;19.30;99.90
21207;DHT22;10761;48.532;8.026;2022-08-19T01:10:33;19.30;99.90
21207;DHT22;10761;48.532;8.026;2022-08-19T01:13:01;19.30;99.90
21207;DHT22;10761;48.532;8.026;2022-08-19T01:15:55;19.20;99.90
21207;DHT22;10761;48.532;8.026;2022-08-19T01:18:22;19.30;99.90
21207;DHT22;10761;48.532;8.026;2022-08-19T01:20:48;19.20;99.90
21207;DHT22;10761;48.532;8.026;2022-08-19T01:23:15;19.10;99.90
21207;DHT22;10761;48.532;8.026;2022-08-19T01:25:50;19.10;99.90
21207;DHT22;10761;48.532;8.026;2022-08-19T01:28:20;19.20;99.90
21207;DHT22;10761;48.532;8.026;2022-08-19T01:30:46;19.10;99.90
21207;DHT22;10761;48.532;8.026;2022-08-19T01:33:13;19.20;99.90
21207;DHT22;10761;48.532;8.026;2022-08-19T01:35:39;19.20;99.90
21207;DHT22;10761;48.532;8.026;2022-08-19T01:38:08;19.10;99.90
21207;DHT22;10761;48.532;8.026;2022-08-19T01:40:37;19.10;99.90
21207;DHT22;10761;48.532;8.026;2022-08-19T01:43:04;19.00;99.90
21207;DHT22;10761;48.532;8.026;2022-08-19T01:45:32;19.00;99.90
21207;DHT22;10761;48.532;8.026;2022-08-19T01:47:59;19.00;99.90
21207;DHT22;10761;48.532;8.026;2022-08-19T01:50:25;19.00;99.90
21207;DHT22;10761;48.532;8.026;2022-08-19T01:52:52;19.00;99.90
21207;DHT22;10761;48.532;8.026;2022-08-19T01:55:20;19.00;99.90
21207;DHT22;10761;48.532;8.026;2022-08-19T01:57:50;19.00;99.90
21207;DHT22;10761;48.532;8.026;2022-08-19T02:00:18;19.00;99.90
21207;DHT22;10761;48.532;8.026;2022-08-19T02:02:44;19.00;99.90
21207;DHT22;10761;48.532;8.026;2022-08-19T02:05:11;19.10;99.90
21207;DHT22;10761;48.532;8.026;2022-08-19T02:07:39;19.00;99.90
21207;DHT22;10761;48.532;8.026;2022-08-19T02:10:09;19.00;99.90
21207;DHT22;10761;48.532;8.026;2022-08-19T02:12:36;19.00;99.90
21207;DHT22;10761;48.532;8.026;2022-08-19T02:15:03;19.00;99.90
21207;DHT22;10761;48.532;8.026;2022-08-19T02:17:29;19.00;99.90
21207;DHT22;10761;48.532;8.026;2022-08-19T02:19:56;19.00;99.90
21207;DHT22;10761;48.532;8.026;2022-08-19T02:22:22;18.90;99.90
21207;DHT22;10761;48.532;8.026;2022-08-19T02:24:48;18.90;99.90
21207;DHT22;10761;48.532;8.026;2022-08-19T02:27:15;18.90;99.90
21207;DHT22;10761;48.532;8.026;2022-08-19T02:29:41;18.90;99.90
21207;DHT22;10761;48.532;8.026;2022-08-19T02:32:07;18.90;99.90
21207;DHT22;10761;48.532;8.026;2022-08-19T02:34:33;18.90;99.90
21207;DHT22;10761;48.532;8.026;2022-08-19T02:36:59;18.80;99.90
21207;DHT22;10761;48.532;8.026;2022-08-19T02:39:24;18.80;99.90
21207;DHT22;10761;48.532;8.026;2022-08-19T02:41:50;18.80;99.90
21207;DHT22;10761;48.532;8.026;2022-08-19T02:44:17;18.80;99.90
21207;DHT22;10761;48.532;8.026;2022-08-19T02:46:45;18.80;99.90
21207;DHT22;10761;48.532;8.026;2022-08-19T02:49:11;18.80;99.90
21207;DHT22;10761;48.532;8.026;2022-08-19T02:51:40;18.90;99.90
21207;DHT22;10761;48.532;8.026;2022-08-19T02:54:08;18.90;99.90
21207;DHT22;10761;48.532;8.026;2022-08-19T02:56:36;18.80;99.90
21207;DHT22;10761;48.532;8.026;2022-08-19T02:59:03;18.90;99.90
21207;DHT22;10761;48.532;8.026;2022-08-19T03:01:34;18.90;99.90
21207;DHT22;10761;48.532;8.026;2022-08-19T03:04:03;18.90;99.90
21207;DHT22;10761;48.532;8.026;2022-08-19T03:06:29;18.90;99.90
21207;DHT22;10761;48.532;8.026;2022-08-19T03:08:55;18.80;99.90
21207;DHT22;10761;48.532;8.026;2022-08-19T03:11:25;18.90;99.90
21207;DHT22;10761;48.532;8.026;2022-08-19T03:13:51;18.90;99.90
21207;DHT22;10761;48.532;8.026;2022-08-19T03:16:20;18.90;99.90
21207;DHT22;10761;48.532;8.026;2022-08-19T03:18:47;18.90;99.90
21207;DHT22;10761;48.532;8.026;2022-08-19T03:21:23;18.90;99.90
21207;DHT22;10761;48.532;8.026;2022-08-19T03:23:50;18.90;99.90
21207;DHT22;10761;48.532;8.026;2022-08-19T03:26:16;18.90;99.90
21207;DHT22;10761;48.532;8.026;2022-08-19T03:28:43;19.00;99.90
21207;DHT22;10761;48.532;8.026;2022-08-19T03:31:13;18.90;99.90
21207;DHT22;10761;48.532;8.026;2022-08-19T03:33:40;19.00;99.90
21207;DHT22;10761;48.532;8.026;2022-08-19T03:36:08;18.90;99.90
21207;DHT22;10761;48.532;8.026;2022-08-19T03:38:37;19.00;99.90
21207;DHT22;10761;48.532;8.026;2022-08-19T03:41:07;18.90;99.90
21207;DHT22;10761;48.532;8.026;2022-08-19T03:43:35;18.90;99.90
21207;DHT22;10761;48.532;8.026;2022-08-19T03:46:10;18.90;99.90
21207;DHT22;10761;48.532;8.026;2022-08-19T03:48:36;18.90;99.90
21207;DHT22;10761;48.532;8.026;2022-08-19T03:51:04;18.90;99.90
21207;DHT22;10761;48.532;8.026;2022-08-19T03:53:31;19.00;99.90
21207;DHT22;10761;48.532;8.026;2022-08-19T03:55:58;19.00;99.90
21207;DHT22;10761;48.532;8.026;2022-08-19T03:58:26;19.00;99.90
21207;DHT22;10761;48.532;8.026;2022-08-19T04:00:54;19.00;99.90
21207;DHT22;10761;48.532;8.026;2022-08-19T04:03:21;19.00;99.90
21207;DHT22;10761;48.532;8.026;2022-08-19T04:05:47;19.00;99.90
21207;DHT22;10761;48.532;8.026;2022-08-19T04:08:13;18.90;99.90
21207;DHT22;10761;48.532;8.026;2022-08-19T04:10:44;18.80;99.90
21207;DHT22;10761;48.532;8.026;2022-08-19T04:13:09;18.80;99.90
21207;DHT22;10761;48.532;8.026;2022-08-19T04:15:42;18.80;99.90
21207;DHT22;10761;48.532;8.026;2022-08-19T04:18:10;18.90;99.90
21207;DHT22;10761;48.532;8.026;2022-08-19T04:20:46;18.90;99.90
21207;DHT22;10761;48.532;8.026;2022-08-19T04:23:14;19.00;99.90
21207;DHT22;10761;48.532;8.026;2022-08-19T04:25:42;18.90;99.90
21207;DHT22;10761;48.532;8.026;2022-08-19T04:28:09;18.90;99.90
21207;DHT22;10761;48.532;8.026;2022-08-19T04:30:48;18.90;99.90
21207;DHT22;10761;48.532;8.026;2022-08-19T04:33:16;18.90;99.90
21207;DHT22;10761;48.532;8.026;2022-08-19T04:35:47;18.90;99.90
21207;DHT22;10761;48.532;8.026;2022-08-19T04:38:16;18.90;99.90
21207;DHT22;10761;48.532;8.026;2022-08-19T04:40:44;18.90;99.90
21207;DHT22;10761;48.532;8.026;2022-08-19T04:43:28;18.90;99.90
21207;DHT22;10761;48.532;8.026;2022-08-19T04:45:54;18.90;99.90
21207;DHT22;10761;48.532;8.026;2022-08-19T04:48:20;19.00;99.90
21207;DHT22;10761;48.532;8.026;2022-08-19T04:50:51;19.00;99.90
21207;DHT22;10761;48.532;8.026;2022-08-19T04:53:22;19.00;99.90
21207;DHT22;10761;48.532;8.026;2022-08-19T04:55:47;19.00;99.90
21207;DHT22;10761;48.532;8.026;2022-08-19T04:58:13;19.00;99.90
21207;DHT22;10761;48.532;8.026;2022-08-19T05:00:39;19.00;99.90
21207;DHT22;10761;48.532;8.026;2022-08-19T05:03:05;19.00;99.90
21207;DHT22;10761;48.532;8.026;2022-08-19T05:05:30;19.00;99.90
21207;DHT22;10761;48.532;8.026;2022-08-19T05:07:57;19.00;99.90
21207;DHT22;10761;48.532;8.026;2022-08-19T05:10:22;19.00;99.90
21207;DHT22;10761;48.532;8.026;2022-08-19T05:12:48;19.00;99.90
21207;DHT22;10761;48.532;8.026;2022-08-19T05:15:14;18.90;99.90
21207;DHT22;10761;48.532;8.026;2022-08-19T05:17:39;19.00;99.90
21207;DHT22;10761;48.532;8.026;2022-08-19T05:20:25;18.90;99.90
21207;DHT22;10761;48.532;8.026;2022-08-19T05:23:10;18.90;99.90
21207;DHT22;10761;48.532;8.026;2022-08-19T05:25:39;18.80;99.90
21207;DHT22;10761;48.532;8.026;2022-08-19T05:28:05;18.90;99.90
21207;DHT22;10761;48.532;8.026;2022-08-19T05:30:30;18.90;99.90
21207;DHT22;10761;48.532;8.026;2022-08-19T05:32:57;18.80;99.90
21207;DHT22;10761;48.532;8.026;2022-08-19T05:35:23;18.90;99.90
21207;DHT22;10761;48.532;8.026;2022-08-19T05:37:49;18.90;99.90
21207;DHT22;10761;48.532;8.026;2022-08-19T05:40:14;18.90;99.90
21207;DHT22;10761;48.532;8.026;2022-08-19T05:42:40;18.90;99.90
21207;DHT22;10761;48.532;8.026;2022-08-19T05:45:06;18.90;99.90
21207;DHT22;10761;48.532;8.026;2022-08-19T05:47:32;18.90;99.90
21207;DHT22;10761;48.532;8.026;2022-08-19T05:49:58;19.00;99.90
21207;DHT22;10761;48.532;8.026;2022-08-19T05:52:23;19.00;99.90
21207;DHT22;10761;48.532;8.026;2022-08-19T05:54:49;18.90;99.90
21207;DHT22;10761;48.532;8.026;2022-08-19T05:57:16;18.90;99.90
21207;DHT22;10761;48.532;8.026;2022-08-19T05:59:43;18.90;99.90
21207;DHT22;10761;48.532;8.026;2022-08-19T06:02:11;19.00;99.90
21207;DHT22;10761;48.532;8.026;2022-08-19T06:04:36;19.00;99.90
21207;DHT22;10761;48.532;8.026;2022-08-19T06:07:03;19.00;99.90
21207;DHT22;10761;48.532;8.026;2022-08-19T06:09:29;19.00;99.90
21207;DHT22;10761;48.532;8.026;2022-08-19T06:11:57;18.90;99.90
21207;DHT22;10761;48.532;8.026;2022-08-19T06:14:27;18.90;99.90
21207;DHT22;10761;48.532;8.026;2022-08-19T06:16:53;18.90;99.90
21207;DHT22;10761;48.532;8.026;2022-08-19T06:19:21;18.90;99.90
21207;DHT22;10761;48.532;8.026;2022-08-19T06:21:48;19.00;99.90
21207;DHT22;10761;48.532;8.026;2022-08-19T06:24:18;19.00;99.90
21207;DHT22;10761;48.532;8.026;2022-08-19T06:26:46;19.00;99.90
21207;DHT22;10761;48.532;8.026;2022-08-19T06:29:14;19.00;99.90
21207;DHT22;10761;48.532;8.026;2022-08-19T06:31:47;19.10;99.90
21207;DHT22;10761;48.532;8.026;2022-08-19T06:34:15;19.10;99.90
21207;DHT22;10761;48.532;8.026;2022-08-19T06:36:43;19.10;99.90
21207;DHT22;10761;48.532;8.026;2022-08-19T06:39:15;19.10;99.90
21207;DHT22;10761;48.532;8.026;2022-08-19T06:41:43;19.10;99.90
21207;DHT22;10761;48.532;8.026;2022-08-19T06:44:10;19.10;99.90
21207;DHT22;10761;48.532;8.026;2022-08-19T06:46:37;19.10;99.90
21207;DHT22;10761;48.532;8.026;2022-08-19T06:49:03;19.10;99.90
21207;DHT22;10761;48.532;8.026;2022-08-19T06:51:29;19.20;99.90
21207;DHT22;10761;48.532;8.026;2022-08-19T06:53:57;19.20;99.90
21207;DHT22;10761;48.532;8.026;2022-08-19T06:56:25;19.20;99.90
21207;DHT22;10761;48.532;8.026;2022-08-19T06:58:56;19.30;99.90
21207;DHT22;10761;48.532;8.026;2022-08-19T07:01:22;19.40;99.90
21207;DHT22;10761;48.532;8.026;2022-08-19T07:03:47;19.40;99.90
21207;DHT22;10761;48.532;8.026;2022-08-19T07:06:16;19.40;99.90
21207;DHT22;10761;48.532;8.026;2022-08-19T07:08:44;19.50;99.90
21207;DHT22;10761;48.532;8.026;2022-08-19T07:11:12;19.50;99.90
21207;DHT22;10761;48.532;8.026;2022-08-19T07:13:41;19.50;99.90
21207;DHT22;10761;48.532;8.026;2022-08-19T07:16:12;19.60;99.90
21207;DHT22;10761;48.532;8.026;2022-08-19T07:18:38;19.60;99.90
21207;DHT22;10761;48.532;8.026;2022-08-19T07:21:08;19.70;99.90
21207;DHT22;10761;48.532;8.026;2022-08-19T07:23:34;19.80;99.90
21207;DHT22;10761;48.532;8.026;2022-08-19T07:28:40;20.00;99.90
21207;DHT22;10761;48.532;8.026;2022-08-19T07:31:17;20.00;99.90
21207;DHT22;10761;48.532;8.026;2022-08-19T07:33:44;20.10;99.90
21207;DHT22;10761;48.532;8.026;2022-08-19T07:36:12;20.10;99.90
21207;DHT22;10761;48.532;8.026;2022-08-19T07:38:42;20.20;99.90
21207;DHT22;10761;48.532;8.026;2022-08-19T07:41:11;20.30;99.90
21207;DHT22;10761;48.532;8.026;2022-08-19T07:43:38;20.60;99.90
21207;DHT22;10761;48.532;8.026;2022-08-19T07:46:03;20.70;99.90
21207;DHT22;10761;48.532;8.026;2022-08-19T07:48:29;20.70;99.90
21207;DHT22;10761;48.532;8.026;2022-08-19T07:50:57;20.90;99.90
21207;DHT22;10761;48.532;8.026;2022-08-19T07:53:24;20.80;99.90
21207;DHT22;10761;48.532;8.026;2022-08-19T07:55:50;20.80;99.90
21207;DHT22;10761;48.532;8.026;2022-08-19T07:58:19;21.00;99.90
21207;DHT22;10761;48.532;8.026;2022-08-19T08:00:46;21.10;99.90
21207;DHT22;10761;48.532;8.026;2022-08-19T08:03:14;21.20;99.90
21207;DHT22;10761;48.532;8.026;2022-08-19T08:05:40;21.20;99.90
21207;DHT22;10761;48.532;8.026;2022-08-19T08:08:25;21.20;99.90
21207;DHT22;10761;48.532;8.026;2022-08-19T08:10:57;21.30;99.90
21207;DHT22;10761;48.532;8.026;2022-08-19T08:13:23;21.20;99.90
21207;DHT22;10761;48.532;8.026;2022-08-19T08:15:49;21.40;99.90
21207;DHT22;10761;48.532;8.026;2022-08-19T08:18:15;21.40;99.90
21207;DHT22;10761;48.532;8.026;2022-08-19T08:20:40;21.40;99.90
21207;DHT22;10761;48.532;8.026;2022-08-19T08:23:06;21.50;99.90
21207;DHT22;10761;48.532;8.026;2022-08-19T08:25:54;21.40;99.90
21207;DHT22;10761;48.532;8.026;2022-08-19T08:28:20;21.40;99.90
21207;DHT22;10761;48.532;8.026;2022-08-19T08:30:48;21.50;99.90
21207;DHT22;10761;48.532;8.026;2022-08-19T08:33:17;21.50;99.90
21207;DHT22;10761;48.532;8.026;2022-08-19T08:35:43;21.40;99.90
21207;DHT22;10761;48.532;8.026;2022-08-19T08:38:11;21.60;99.90
21207;DHT22;10761;48.532;8.026;2022-08-19T08:40:47;21.70;99.90
21207;DHT22;10761;48.532;8.026;2022-08-19T08:46:10;21.70;99.90
21207;DHT22;10761;48.532;8.026;2022-08-19T08:48:53;21.90;99.90
21207;DHT22;10761;48.532;8.026;2022-08-19T08:51:28;22.00;99.90
21207;DHT22;10761;48.532;8.026;2022-08-19T08:53:54;21.90;99.90
21207;DHT22;10761;48.532;8.026;2022-08-19T08:56:21;22.00;99.90
21207;DHT22;10761;48.532;8.026;2022-08-19T08:58:58;22.10;99.90
21207;DHT22;10761;48.532;8.026;2022-08-19T09:01:25;22.10;99.90
21207;DHT22;10761;48.532;8.026;2022-08-19T09:03:52;22.10;99.90
21207;DHT22;10761;48.532;8.026;2022-08-19T09:06:38;22.30;99.90
21207;DHT22;10761;48.532;8.026;2022-08-19T09:09:56;22.50;99.90
21207;DHT22;10761;48.532;8.026;2022-08-19T09:12:17;22.40;99.90
21207;DHT22;10761;48.532;8.026;2022-08-19T09:14:49;22.30;99.90
21207;DHT22;10761;48.532;8.026;2022-08-19T09:17:16;22.20;99.90
21207;DHT22;10761;48.532;8.026;2022-08-19T09:19:58;22.20;99.90
21207;DHT22;10761;48.532;8.026;2022-08-19T09:22:24;22.30;99.90
21207;DHT22;10761;48.532;8.026;2022-08-19T09:24:50;22.40;99.90
21207;DHT22;10761;48.532;8.026;2022-08-19T09:27:20;22.70;99.90
21207;DHT22;10761;48.532;8.026;2022-08-19T09:29:46;22.80;99.90
21207;DHT22;10761;48.532;8.026;2022-08-19T09:32:14;22.90;99.90
21207;DHT22;10761;48.532;8.026;2022-08-19T09:34:39;23.00;99.90
21207;DHT22;10761;48.532;8.026;2022-08-19T09:37:05;23.20;99.90
21207;DHT22;10761;48.532;8.026;2022-08-19T09:39:31;23.50;99.90
21207;DHT22;10761;48.532;8.026;2022-08-19T09:41:57;23.70;99.90
21207;DHT22;10761;48.532;8.026;2022-08-19T09:44:23;23.90;99.90
21207;DHT22;10761;48.532;8.026;2022-08-19T09:46:49;24.00;99.90
21207;DHT22;10761;48.532;8.026;2022-08-19T09:49:17;24.10;99.90
21207;DHT22;10761;48.532;8.026;2022-08-19T09:51:43;24.40;99.90
21207;DHT22;10761;48.532;8.026;2022-08-19T09:54:09;24.60;99.90
21207;DHT22;10761;48.532;8.026;2022-08-19T09:56:34;24.90;99.90
21207;DHT22;10761;48.532;8.026;2022-08-19T09:59:02;24.80;99.90
21207;DHT22;10761;48.532;8.026;2022-08-19T10:01:29;24.60;99.90
21207;DHT22;10761;48.532;8.026;2022-08-19T10:03:57;24.90;99.90
21207;DHT22;10761;48.532;8.026;2022-08-19T10:06:26;24.90;99.90
21207;DHT22;10761;48.532;8.026;2022-08-19T10:08:55;25.00;99.90
21207;DHT22;10761;48.532;8.026;2022-08-19T10:11:21;24.90;99.90
21207;DHT22;10761;48.532;8.026;2022-08-19T10:13:47;25.00;99.90
21207;DHT22;10761;48.532;8.026;2022-08-19T10:16:16;25.30;99.90
21207;DHT22;10761;48.532;8.026;2022-08-19T10:18:43;25.50;99.90
21207;DHT22;10761;48.532;8.026;2022-08-19T10:21:14;26.00;99.90
21207;DHT22;10761;48.532;8.026;2022-08-19T10:23:42;25.80;99.90
21207;DHT22;10761;48.532;8.026;2022-08-19T10:26:13;25.60;99.90
21207;DHT22;10761;48.532;8.026;2022-08-19T10:28:39;25.30;99.90
21207;DHT22;10761;48.532;8.026;2022-08-19T10:31:11;25.30;99.90
21207;DHT22;10761;48.532;8.026;2022-08-19T10:33:38;25.40;99.90
21207;DHT22;10761;48.532;8.026;2022-08-19T10:36:11;25.40;99.90
21207;DHT22;10761;48.532;8.026;2022-08-19T10:38:37;25.50;99.90
21207;DHT22;10761;48.532;8.026;2022-08-19T10:41:14;25.50;99.90
21207;DHT22;10761;48.532;8.026;2022-08-19T10:43:41;25.60;99.90
21207;DHT22;10761;48.532;8.026;2022-08-19T10:46:11;25.30;99.90
21207;DHT22;10761;48.532;8.026;2022-08-19T10:48:37;25.00;99.90
21207;DHT22;10761;48.532;8.026;2022-08-19T10:51:03;25.00;99.90
21207;DHT22;10761;48.532;8.026;2022-08-19T10:53:48;24.60;99.90
21207;DHT22;10761;48.532;8.026;2022-08-19T10:56:14;24.70;99.90
21207;DHT22;10761;48.532;8.026;2022-08-19T10:58:59;24.70;99.90
21207;DHT22;10761;48.532;8.026;2022-08-19T11:01:26;24.70;99.90
21207;DHT22;10761;48.532;8.026;2022-08-19T11:03:52;24.80;99.90
21207;DHT22;10761;48.532;8.026;2022-08-19T11:06:19;25.00;99.90
21207;DHT22;10761;48.532;8.026;2022-08-19T11:08:45;25.10;99.90
21207;DHT22;10761;48.532;8.026;2022-08-19T11:11:12;25.10;99.90
21207;DHT22;10761;48.532;8.026;2022-08-19T11:13:40;25.00;99.90
21207;DHT22;10761;48.532;8.026;2022-08-19T11:16:15;25.20;99.90
21207;DHT22;10761;48.532;8.026;2022-08-19T11:18:44;25.30;99.90
21207;DHT22;10761;48.532;8.026;2022-08-19T11:21:20;25.50;99.90
21207;DHT22;10761;48.532;8.026;2022-08-19T11:23:48;25.30;99.90
21207;DHT22;10761;48.532;8.026;2022-08-19T11:26:15;25.40;99.90
21207;DHT22;10761;48.532;8.026;2022-08-19T11:28:42;25.60;99.90
21207;DHT22;10761;48.532;8.026;2022-08-19T11:31:17;25.60;99.90
21207;DHT22;10761;48.532;8.026;2022-08-19T11:33:44;25.20;99.90
21207;DHT22;10761;48.532;8.026;2022-08-19T11:36:10;25.00;99.90
21207;DHT22;10761;48.532;8.026;2022-08-19T11:38:36;24.80;99.90
21207;DHT22;10761;48.532;8.026;2022-08-19T11:41:05;24.80;99.90
21207;DHT22;10761;48.532;8.026;2022-08-19T11:43:32;24.80;99.90
21207;DHT22;10761;48.532;8.026;2022-08-19T11:45:57;24.70;99.90
21207;DHT22;10761;48.532;8.026;2022-08-19T11:48:24;24.80;99.90
21207;DHT22;10761;48.532;8.026;2022-08-19T11:50:52;24.80;99.90
21207;DHT22;10761;48.532;8.026;2022-08-19T11:53:20;25.00;99.90
21207;DHT22;10761;48.532;8.026;2022-08-19T11:55:47;25.30;99.90
21207;DHT22;10761;48.532;8.026;2022-08-19T11:58:15;25.20;99.90
21207;DHT22;10761;48.532;8.026;2022-08-19T12:00:41;25.20;99.90
21207;DHT22;10761;48.532;8.026;2022-08-19T12:03:08;25.20;99.90
21207;DHT22;10761;48.532;8.026;2022-08-19T12:05:36;25.30;99.90
21207;DHT22;10761;48.532;8.026;2022-08-19T12:08:02;25.50;99.90
21207;DHT22;10761;48.532;8.026;2022-08-19T12:10:28;25.60;99.90
21207;DHT22;10761;48.532;8.026;2022-08-19T12:12:53;26.20;99.90
21207;DHT22;10761;48.532;8.026;2022-08-19T12:15:19;26.70;99.90
21207;DHT22;10761;48.532;8.026;2022-08-19T12:17:44;26.80;99.90
21207;DHT22;10761;48.532;8.026;2022-08-19T12:20:12;26.70;99.90
21207;DHT22;10761;48.532;8.026;2022-08-19T12:22:39;26.50;99.90
21207;DHT22;10761;48.532;8.026;2022-08-19T12:25:06;26.70;99.90
21207;DHT22;10761;48.532;8.026;2022-08-19T12:27:32;27.20;99.90
21207;DHT22;10761;48.532;8.026;2022-08-19T12:29:58;27.80;99.90
21207;DHT22;10761;48.532;8.026;2022-08-19T12:32:25;28.20;99.90
21207;DHT22;10761;48.532;8.026;2022-08-19T12:34:51;28.50;99.90
21207;DHT22;10761;48.532;8.026;2022-08-19T12:37:17;28.60;99.90
21207;DHT22;10761;48.532;8.026;2022-08-19T12:39:43;28.70;99.90
21207;DHT22;10761;48.532;8.026;2022-08-19T12:42:13;28.20;99.90
21207;DHT22;10761;48.532;8.026;2022-08-19T12:44:40;28.30;99.90
21207;DHT22;10761;48.532;8.026;2022-08-19T12:47:07;28.30;99.90
21207;DHT22;10761;48.532;8.026;2022-08-19T12:49:34;28.80;99.90
21207;DHT22;10761;48.532;8.026;2022-08-19T12:52:00;29.10;99.90
21207;DHT22;10761;48.532;8.026;2022-08-19T12:54:27;29.50;99.90
21207;DHT22;10761;48.532;8.026;2022-08-19T12:56:52;29.80;99.90
21207;DHT22;10761;48.532;8.026;2022-08-19T12:59:18;29.70;99.90
21207;DHT22;10761;48.532;8.026;2022-08-19T13:01:44;29.50;99.90
21207;DHT22;10761;48.532;8.026;2022-08-19T13:04:10;29.70;99.90
21207;DHT22;10761;48.532;8.026;2022-08-19T13:06:36;30.10;99.90
21207;DHT22;10761;48.532;8.026;2022-08-19T13:09:05;30.10;99.90
21207;DHT22;10761;48.532;8.026;2022-08-19T13:11:31;30.50;99.90
21207;DHT22;10761;48.532;8.026;2022-08-19T13:13:59;30.80;99.90
21207;DHT22;10761;48.532;8.026;2022-08-19T13:16:25;31.10;99.90
21207;DHT22;10761;48.532;8.026;2022-08-19T13:18:53;31.00;99.90
21207;DHT22;10761;48.532;8.026;2022-08-19T13:21:20;30.00;99.90
21207;DHT22;10761;48.532;8.026;2022-08-19T13:23:46;29.40;99.90
21207;DHT22;10761;48.532;8.026;2022-08-19T13:26:12;28.40;99.90
21207;DHT22;10761;48.532;8.026;2022-08-19T13:28:39;27.50;99.90
21207;DHT22;10761;48.532;8.026;2022-08-19T13:31:26;26.90;99.90
21207;DHT22;10761;48.532;8.026;2022-08-19T13:34:11;26.40;99.90
21207;DHT22;10761;48.532;8.026;2022-08-19T13:36:37;26.00;99.90
21207;DHT22;10761;48.532;8.026;2022-08-19T13:39:05;25.70;99.90
21207;DHT22;10761;48.532;8.026;2022-08-19T13:41:31;25.70;99.90
21207;DHT22;10761;48.532;8.026;2022-08-19T13:43:57;25.40;99.90
21207;DHT22;10761;48.532;8.026;2022-08-19T13:46:22;25.30;99.90
21207;DHT22;10761;48.532;8.026;2022-08-19T13:48:48;25.20;99.90
21207;DHT22;10761;48.532;8.026;2022-08-19T13:51:15;25.20;99.90
21207;DHT22;10761;48.532;8.026;2022-08-19T13:53:42;25.10;99.90
21207;DHT22;10761;48.532;8.026;2022-08-19T13:56:10;24.90;99.90
21207;DHT22;10761;48.532;8.026;2022-08-19T13:58:37;24.80;99.90
21207;DHT22;10761;48.532;8.026;2022-08-19T14:01:04;24.80;99.90
21207;DHT22;10761;48.532;8.026;2022-08-19T14:03:31;24.80;99.90
21207;DHT22;10761;48.532;8.026;2022-08-19T14:05:56;24.80;99.90
21207;DHT22;10761;48.532;8.026;2022-08-19T14:08:22;24.70;99.90
21207;DHT22;10761;48.532;8.026;2022-08-19T14:10:49;24.70;99.90
21207;DHT22;10761;48.532;8.026;2022-08-19T14:13:18;24.70;99.90
21207;DHT22;10761;48.532;8.026;2022-08-19T14:15:44;24.70;99.90
21207;DHT22;10761;48.532;8.026;2022-08-19T14:18:10;24.80;99.90
21207;DHT22;10761;48.532;8.026;2022-08-19T14:20:36;24.80;99.90
21207;DHT22;10761;48.532;8.026;2022-08-19T14:23:03;24.70;99.90
21207;DHT22;10761;48.532;8.026;2022-08-19T14:25:31;24.70;99.90
21207;DHT22;10761;48.532;8.026;2022-08-19T14:27:57;24.60;99.90
21207;DHT22;10761;48.532;8.026;2022-08-19T14:30:31;24.50;99.90
21207;DHT22;10761;48.532;8.026;2022-08-19T14:32:59;24.60;99.90
21207;DHT22;10761;48.532;8.026;2022-08-19T14:35:27;24.70;99.90
21207;DHT22;10761;48.532;8.026;2022-08-19T14:37:53;24.60;99.90
21207;DHT22;10761;48.532;8.026;2022-08-19T14:40:22;24.60;99.90
21207;DHT22;10761;48.532;8.026;2022-08-19T14:42:59;24.70;99.90
21207;DHT22;10761;48.532;8.026;2022-08-19T14:45:35;24.80;99.90
21207;DHT22;10761;48.532;8.026;2022-08-19T14:48:01;24.80;99.90
21207;DHT22;10761;48.532;8.026;2022-08-19T14:50:27;24.80;99.90
21207;DHT22;10761;48.532;8.026;2022-08-19T14:53:01;24.70;99.90
21207;DHT22;10761;48.532;8.026;2022-08-19T14:55:28;24.70;99.90
21207;DHT22;10761;48.532;8.026;2022-08-19T14:57:54;24.70;99.90
21207;DHT22;10761;48.532;8.026;2022-08-19T15:00:20;24.60;99.90
21207;DHT22;10761;48.532;8.026;2022-08-19T15:02:46;24.60;99.90
21207;DHT22;10761;48.532;8.026;2022-08-19T15:05:12;24.60;99.90
21207;DHT22;10761;48.532;8.026;2022-08-19T15:07:38;24.70;99.90
21207;DHT22;10761;48.532;8.026;2022-08-19T15:10:05;24.80;99.90
21207;DHT22;10761;48.532;8.026;2022-08-19T15:12:33;24.90;99.90
21207;DHT22;10761;48.532;8.026;2022-08-19T15:14:59;25.10;99.90
21207;DHT22;10761;48.532;8.026;2022-08-19T15:17:25;25.20;99.90
21207;DHT22;10761;48.532;8.026;2022-08-19T15:19:51;25.30;99.90
21207;DHT22;10761;48.532;8.026;2022-08-19T15:22:16;25.20;99.90
21207;DHT22;10761;48.532;8.026;2022-08-19T15:24:42;25.20;99.90
21207;DHT22;10761;48.532;8.026;2022-08-19T15:27:11;25.10;99.90
21207;DHT22;10761;48.532;8.026;2022-08-19T15:29:37;25.00;99.90
21207;DHT22;10761;48.532;8.026;2022-08-19T15:32:02;24.90;99.90
21207;DHT22;10761;48.532;8.026;2022-08-19T15:34:28;24.80;99.90
21207;DHT22;10761;48.532;8.026;2022-08-19T15:36:55;24.80;99.90
21207;DHT22;10761;48.532;8.026;2022-08-19T15:39:23;24.70;99.90
21207;DHT22;10761;48.532;8.026;2022-08-19T15:41:49;24.60;99.90